Time;durP1;ratioP1;P1;durP2;ratioP2;P2;SDS_P1;SDS_P2;PMS_P1;PMS_P2;Temp;Humidity;BMP_temperature;BMP_pressure;BME280_temperature;BME280_humidity;BME280_pressure;Samples;Min_cycle;Max_cycle;Signal;HPM_P1;HPM_P2
2021/07/19 00:02:25;;;;;;;12.10;5.78;;;;;;;14.70;48.67;96022.22;4982241;28;20061;-66
2021/07/19 00:04:51;;;;;;;11.20;5.38;;;;;;;14.69;48.56;96025.94;4982152;28;20113;-65
2021/07/19 00:07:16;;;;;;;18.42;8.18;;;;;;;14.57;49.16;96020.25;4982080;28;20117;-65
2021/07/19 00:09:44;;;;;;;11.40;6.03;;;;;;;14.49;49.85;96015.06;4982351;28;20347;-66
2021/07/19 00:12:10;;;;;;;12.43;7.55;;;;;;;14.47;49.08;96012.56;4982588;28;20037;-65
2021/07/19 00:14:35;;;;;;;10.88;6.53;;;;;;;14.30;50.03;96012.00;4980963;28;20042;-65
2021/07/19 00:17:01;;;;;;;9.13;5.82;;;;;;;14.46;49.86;96006.38;4986301;28;20448;-66
2021/07/19 00:19:26;;;;;;;6.97;4.25;;;;;;;14.51;49.32;96005.78;4985597;28;20543;-65
2021/07/19 00:21:52;;;;;;;7.18;4.82;;;;;;;14.54;49.73;96009.94;4987043;28;20034;-65
2021/07/19 00:24:17;;;;;;;7.53;4.25;;;;;;;14.08;50.50;95999.44;4988426;28;20038;-65
2021/07/19 00:26:42;;;;;;;8.85;4.63;;;;;;;14.05;50.59;96001.69;4988072;28;20098;-65
2021/07/19 00:29:08;;;;;;;15.80;7.95;;;;;;;14.30;49.43;96001.28;4988365;28;20034;-65
2021/07/19 00:31:34;;;;;;;3.60;3.30;;;;;;;14.38;48.94;95998.47;4988358;28;20076;-65
2021/07/19 00:34:03;;;;;;;6.20;4.30;;;;;;;14.52;48.79;95994.03;4987877;28;20054;-65
2021/07/19 00:36:28;;;;;;;9.50;4.40;;;;;;;14.37;49.50;95996.81;4988298;28;20029;-65
2021/07/19 00:38:54;;;;;;;5.65;3.42;;;;;;;14.52;48.82;96001.28;4987786;28;20034;-65
2021/07/19 00:41:20;;;;;;;6.75;3.67;;;;;;;14.61;48.50;96005.47;4987995;28;20045;-65
2021/07/19 00:43:45;;;;;;;6.03;3.70;;;;;;;14.50;49.04;95990.75;4987500;28;20116;-65
2021/07/19 00:46:10;;;;;;;5.07;3.45;;;;;;;14.61;48.72;96001.97;4987649;28;20042;-65
2021/07/19 00:48:36;;;;;;;11.05;4.15;;;;;;;14.49;49.82;95999.81;4983950;28;20034;-65
2021/07/19 00:51:01;;;;;;;12.77;6.72;;;;;;;14.40;49.44;96003.63;4986631;28;20500;-67
2021/07/19 00:53:27;;;;;;;8.93;5.90;;;;;;;14.31;50.81;95997.63;4986793;28;20030;-65
2021/07/19 00:55:54;;;;;;;7.35;4.57;;;;;;;14.13;51.65;95996.19;4986298;28;20045;-67
2021/07/19 00:58:20;;;;;;;7.43;4.60;;;;;;;14.21;50.56;95992.56;4970348;28;20574;-65
2021/07/19 01:00:49;;;;;;;6.93;4.03;;;;;;;14.39;49.37;95994.78;4986514;28;20033;-65
2021/07/19 01:03:15;;;;;;;18.10;8.02;;;;;;;14.35;50.00;95996.19;4987617;28;20042;-65
2021/07/19 01:05:42;;;;;;;12.18;7.05;;;;;;;14.40;49.70;95995.59;4969512;28;20132;-65
2021/07/19 01:08:07;;;;;;;8.18;5.07;;;;;;;14.46;48.79;95995.66;4986052;28;20073;-65
2021/07/19 01:10:33;;;;;;;15.20;7.53;;;;;;;14.23;51.56;95993.19;4987754;28;20042;-65
2021/07/19 01:12:59;;;;;;;11.45;5.93;;;;;;;14.29;50.21;95988.94;4986645;28;20160;-65
2021/07/19 01:15:25;;;;;;;14.63;5.80;;;;;;;14.34;49.91;95987.31;4987198;28;20041;-65
2021/07/19 01:17:52;;;;;;;13.30;6.68;;;;;;;14.17;51.46;95992.13;4986665;28;20049;-65
2021/07/19 01:20:18;;;;;;;12.55;5.85;;;;;;;13.89;51.89;95997.41;4986507;28;20014;-65
2021/07/19 01:23:04;;;;;;;7.05;4.18;;;;;;;13.52;53.84;95995.53;4970043;28;20092;-65
2021/07/19 01:25:45;;;;;;;12.65;5.85;;;;;;;13.42;54.32;95995.81;4987664;28;20026;-65
2021/07/19 01:28:15;;;;;;;5.90;3.42;;;;;;;13.69;53.64;95982.75;4987776;28;20058;-65
2021/07/19 01:30:41;;;;;;;8.23;3.70;;;;;;;14.04;50.72;95978.63;4985928;28;20042;-65
2021/07/19 01:33:06;;;;;;;10.25;4.85;;;;;;;13.94;52.01;95977.06;4986446;28;20077;-65
2021/07/19 01:35:33;;;;;;;10.15;5.03;;;;;;;13.83;53.08;95988.25;4987480;28;20046;-65
2021/07/19 01:37:59;;;;;;;4.15;3.08;;;;;;;13.99;51.55;95981.03;4986049;28;20633;-65
2021/07/19 01:40:24;;;;;;;9.80;5.38;;;;;;;13.89;52.13;95982.19;4988229;28;20026;-65
2021/07/19 01:42:50;;;;;;;7.43;3.80;;;;;;;13.73;53.23;95977.03;4986060;28;20038;-65
2021/07/19 01:45:15;;;;;;;7.80;3.70;;;;;;;13.83;53.10;95975.72;4970206;28;20034;-65
2021/07/19 01:47:41;;;;;;;3.55;3.08;;;;;;;14.07;51.65;95981.72;4969374;28;20038;-65
2021/07/19 01:50:07;;;;;;;9.60;4.50;;;;;;;14.05;52.33;95983.75;4986211;28;20756;-65
2021/07/19 01:52:32;;;;;;;9.57;4.15;;;;;;;13.93;52.81;95979.94;4987383;28;20034;-65
2021/07/19 01:54:58;;;;;;;5.97;3.70;;;;;;;14.14;51.62;95979.09;4987507;28;20027;-65
2021/07/19 01:57:23;;;;;;;9.98;5.28;;;;;;;13.66;53.88;95980.47;4986175;28;20523;-65
2021/07/19 01:59:49;;;;;;;8.90;4.30;;;;;;;14.01;51.69;95966.41;4987514;28;20496;-65
2021/07/19 02:02:16;;;;;;;7.05;4.43;;;;;;;14.07;51.91;95972.84;4987021;28;20518;-65
2021/07/19 02:04:42;;;;;;;8.50;5.13;;;;;;;13.82;52.90;95975.91;4970474;28;20078;-65
2021/07/19 02:07:07;;;;;;;10.75;5.03;;;;;;;13.40;54.14;95970.28;4985188;28;20960;-65
2021/07/19 02:09:32;;;;;;;8.85;4.53;;;;;;;13.46;54.33;95974.88;4969207;28;20038;-65
2021/07/19 02:11:59;;;;;;;6.32;4.30;;;;;;;13.58;54.05;95972.56;4985060;28;20117;-65
2021/07/19 02:14:25;;;;;;;7.18;4.60;;;;;;;13.37;55.08;95982.19;4986830;28;20066;-65
2021/07/19 02:16:50;;;;;;;9.93;4.80;;;;;;;13.52;54.36;95973.28;4956776;28;20162;-65
2021/07/19 02:19:16;;;;;;;6.82;4.25;;;;;;;13.42;55.36;95974.44;4969319;28;20598;-65
2021/07/19 02:21:42;;;;;;;9.95;5.90;;;;;;;13.62;54.26;95978.34;4986872;28;20044;-66
2021/07/19 02:24:07;;;;;;;8.75;4.60;;;;;;;13.70;53.38;95973.72;4986179;28;20022;-65
2021/07/19 02:26:32;;;;;;;7.80;4.53;;;;;;;13.87;52.90;95961.94;4985489;28;20042;-63
2021/07/19 02:28:58;;;;;;;8.27;4.63;;;;;;;13.61;53.85;95972.19;4988399;28;20042;-64
2021/07/19 02:31:23;;;;;;;10.95;5.70;;;;;;;13.64;53.74;95976.31;4990693;28;20061;-64
2021/07/19 02:33:49;;;;;;;7.80;4.55;;;;;;;13.70;53.42;95970.19;4990369;28;20097;-65
2021/07/19 02:36:15;;;;;;;10.90;4.38;;;;;;;13.77;53.45;95972.97;4989111;28;20368;-64
2021/07/19 02:38:40;;;;;;;7.68;4.70;;;;;;;13.90;53.27;95964.28;4988607;28;20169;-64
2021/07/19 02:41:06;;;;;;;8.57;4.80;;;;;;;13.60;54.52;95973.19;4989515;28;20030;-64
2021/07/19 02:43:32;;;;;;;10.45;5.28;;;;;;;13.51;54.41;95971.66;4972478;28;20050;-65
2021/07/19 02:45:57;;;;;;;9.13;4.50;;;;;;;13.34;55.30;95977.22;4988671;28;20038;-64
2021/07/19 02:48:25;;;;;;;10.93;5.10;;;;;;;13.43;55.25;95978.75;4972622;28;20030;-64
2021/07/19 02:50:52;;;;;;;13.60;5.97;;;;;;;13.69;54.15;95980.09;4990072;28;20038;-64
2021/07/19 02:53:18;;;;;;;8.25;4.60;;;;;;;13.69;55.06;95980.09;4988966;28;20037;-65
2021/07/19 02:55:44;;;;;;;9.45;4.80;;;;;;;13.59;54.28;95987.59;4972498;28;20043;-64
2021/07/19 02:58:14;;;;;;;13.93;5.55;;;;;;;13.51;54.89;95979.66;4989806;28;20082;-65
2021/07/19 03:00:40;;;;;;;10.50;5.03;;;;;;;13.29;55.92;95974.25;4972799;28;20026;-64
2021/07/19 03:03:12;;;;;;;10.43;5.13;;;;;;;13.48;54.97;95967.50;4988164;28;20061;-64
2021/07/19 03:05:38;;;;;;;13.85;5.55;;;;;;;13.36;55.03;95972.50;4966604;28;20038;-64
2021/07/19 03:08:05;;;;;;;10.40;4.95;;;;;;;12.85;57.39;95973.25;4989589;28;20046;-64
2021/07/19 03:10:31;;;;;;;6.60;4.88;;;;;;;13.21;55.66;95966.34;4988156;28;20035;-64
2021/07/19 03:13:01;;;;;;;10.45;5.40;;;;;;;13.52;54.64;95963.44;4989998;28;20141;-64
2021/07/19 03:15:28;;;;;;;12.13;5.68;;;;;;;13.26;55.67;95964.75;4989747;28;20712;-64
2021/07/19 03:17:53;;;;;;;12.57;5.20;;;;;;;13.34;55.25;95958.50;4987658;28;20050;-64
2021/07/19 03:20:19;;;;;;;7.32;5.00;;;;;;;13.56;54.60;95953.19;4972483;28;20034;-64
2021/07/19 03:22:44;;;;;;;8.52;5.60;;;;;;;13.43;55.22;95967.25;4989252;28;20042;-68
2021/07/19 03:25:10;;;;;;;9.65;5.28;;;;;;;13.16;56.02;95959.72;4988040;28;20030;-64
2021/07/19 03:27:36;;;;;;;9.60;5.00;;;;;;;13.21;55.64;95961.84;4989752;28;20030;-64
2021/07/19 03:30:06;;;;;;;10.00;4.95;;;;;;;12.87;56.95;95964.03;4988871;28;20654;-64
2021/07/19 03:32:31;;;;;;;8.20;5.53;;;;;;;12.73;57.16;95964.84;4989911;28;20073;-64
2021/07/19 03:34:56;;;;;;;9.05;5.20;;;;;;;12.85;56.81;95962.56;4987699;28;20090;-64
2021/07/19 03:37:22;;;;;;;10.80;5.00;;;;;;;12.59;57.39;95964.66;4989983;28;20041;-64
2021/07/19 03:39:47;;;;;;;10.75;4.78;;;;;;;12.77;57.01;95966.16;4988501;28;20091;-64
2021/07/19 03:42:13;;;;;;;10.15;4.65;;;;;;;12.90;56.07;95963.69;4989356;28;20038;-64
2021/07/19 03:44:40;;;;;;;7.60;4.65;;;;;;;13.15;55.29;95950.03;4987804;28;20058;-64
2021/07/19 03:47:05;;;;;;;12.25;5.10;;;;;;;13.02;55.74;95963.25;4983439;28;20425;-64
2021/07/19 03:49:31;;;;;;;8.23;5.00;;;;;;;12.56;56.99;95967.69;4970138;28;20026;-64
2021/07/19 03:51:56;;;;;;;8.55;4.85;;;;;;;12.77;56.29;95968.81;4987734;28;20709;-65
2021/07/19 03:54:22;;;;;;;9.43;5.43;;;;;;;12.64;55.82;95969.44;4986957;28;20038;-64
2021/07/19 03:56:47;;;;;;;6.80;4.60;;;;;;;12.70;56.16;95970.56;4989171;28;20073;-64
2021/07/19 03:59:13;;;;;;;6.55;4.35;;;;;;;12.87;55.05;95969.38;4970770;28;20092;-64
2021/07/19 04:01:38;;;;;;;8.73;3.90;;;;;;;13.17;54.49;95957.88;4967926;28;20034;-64
2021/07/19 04:04:09;;;;;;;6.88;3.67;;;;;;;13.45;53.13;95957.19;4991052;28;20018;-64
2021/07/19 04:06:35;;;;;;;7.18;3.42;;;;;;;13.68;52.33;95967.75;4997463;28;20069;-64
2021/07/19 04:09:00;;;;;;;7.93;4.38;;;;;;;13.79;51.83;95965.56;4986967;28;20046;-64
2021/07/19 04:11:26;;;;;;;10.90;4.15;;;;;;;13.62;52.02;95970.31;4971079;28;20046;-64
2021/07/19 04:13:51;;;;;;;7.35;4.38;;;;;;;13.68;52.52;95975.75;4967496;28;20030;-64
2021/07/19 04:16:19;;;;;;;5.75;3.65;;;;;;;13.77;51.74;95964.94;4978292;28;20057;-64
2021/07/19 04:18:45;;;;;;;7.47;3.90;;;;;;;13.87;51.39;95962.75;4970637;28;20049;-64
2021/07/19 04:21:11;;;;;;;8.77;4.20;;;;;;;13.99;50.88;95964.97;4988818;28;20034;-64
2021/07/19 04:23:36;;;;;;;4.70;3.78;;;;;;;14.08;50.76;95966.50;4986435;28;20097;-64
2021/07/19 04:26:02;;;;;;;7.07;3.70;;;;;;;14.27;50.47;95967.69;4986170;28;20101;-64
2021/07/19 04:28:27;;;;;;;6.50;3.80;;;;;;;14.40;50.30;95974.19;4970810;28;20136;-64
2021/07/19 04:30:53;;;;;;;6.43;3.40;;;;;;;14.44;50.39;95976.28;4987802;28;20061;-64
2021/07/19 04:33:19;;;;;;;8.95;4.90;;;;;;;14.20;50.94;95978.34;4988671;28;20112;-64
2021/07/19 04:35:46;;;;;;;32.13;17.48;;;;;;;14.12;51.28;95969.63;4987729;28;20607;-64
2021/07/19 04:38:15;;;;;;;11.65;6.43;;;;;;;14.17;50.90;95981.41;4986192;28;20046;-64
2021/07/19 04:40:44;;;;;;;5.63;3.70;;;;;;;14.28;50.66;95981.94;4986588;28;20065;-64
2021/07/19 04:43:09;;;;;;;5.03;3.50;;;;;;;14.26;51.02;96000.03;4986320;28;20452;-64
2021/07/19 04:45:35;;;;;;;8.23;3.80;;;;;;;14.28;51.25;96004.16;4987552;28;20053;-64
2021/07/19 04:48:00;;;;;;;8.50;4.00;;;;;;;14.16;52.34;96011.06;4979916;28;20455;-65
2021/07/19 04:50:26;;;;;;;8.10;4.70;;;;;;;13.77;54.89;96011.25;4987953;28;20503;-65
2021/07/19 04:52:51;;;;;;;6.32;4.70;;;;;;;13.85;54.05;96014.81;4987673;28;20047;-64
2021/07/19 04:55:20;;;;;;;7.75;4.60;;;;;;;14.00;55.01;96017.50;4987719;28;20046;-64
2021/07/19 04:57:48;;;;;;;9.40;4.97;;;;;;;14.36;53.31;96024.63;4986606;28;20027;-64
2021/07/19 05:00:13;;;;;;;7.90;4.95;;;;;;;14.05;55.49;96031.13;4987860;28;20041;-65
2021/07/19 05:02:40;;;;;;;9.57;5.32;;;;;;;14.37;54.13;96028.13;4986541;28;20038;-64
2021/07/19 05:05:06;;;;;;;9.85;4.68;;;;;;;14.37;54.71;96023.59;4986295;28;20210;-64
2021/07/19 05:07:32;;;;;;;8.27;4.80;;;;;;;14.39;54.49;96015.38;4970123;28;20558;-64
2021/07/19 05:10:01;;;;;;;10.70;4.93;;;;;;;14.19;54.88;96011.50;4969802;28;20034;-65
2021/07/19 05:12:26;;;;;;;9.32;4.82;;;;;;;14.63;52.24;96008.78;4986451;28;20034;-64
2021/07/19 05:14:51;;;;;;;9.98;5.20;;;;;;;;;;4985764;28;20042;-64
2021/07/19 05:17:17;;;;;;;7.87;4.63;;;;;;;14.85;51.56;96009.59;4986262;28;20360;-64
2021/07/19 05:19:43;;;;;;;9.25;4.78;;;;;;;14.58;52.74;96014.72;4969082;28;20121;-64
2021/07/19 05:22:15;;;;;;;7.10;4.50;;;;;;;14.69;53.00;96013.34;4987504;28;20042;-65
2021/07/19 05:24:40;;;;;;;8.43;4.50;;;;;;;15.07;52.07;96008.69;4987698;28;20086;-65
2021/07/19 05:27:06;;;;;;;5.30;3.72;;;;;;;15.42;51.24;96007.81;4987592;28;20186;-64
2021/07/19 05:29:33;;;;;;;8.80;4.60;;;;;;;15.28;52.14;96014.97;4985556;28;20096;-65
2021/07/19 05:31:58;;;;;;;7.13;4.55;;;;;;;15.32;51.28;96010.88;4967188;28;20109;-64
2021/07/19 05:34:24;;;;;;;7.22;4.35;;;;;;;15.43;51.23;96012.19;4980525;28;20031;-64
2021/07/19 05:36:49;;;;;;;7.47;4.38;;;;;;;15.75;49.82;96007.19;4987496;28;20029;-64
2021/07/19 05:39:15;;;;;;;7.65;4.32;;;;;;;15.66;50.16;96003.00;4987406;28;20042;-64
2021/07/19 05:41:41;;;;;;;8.57;4.15;;;;;;;15.61;50.09;96000.94;4973960;28;20039;-64
2021/07/19 05:44:06;;;;;;;7.90;3.75;;;;;;;15.91;49.93;96007.84;4987726;28;20041;-64
2021/07/19 05:46:33;;;;;;;7.00;4.00;;;;;;;16.23;48.73;96005.41;4972714;28;20058;-64
2021/07/19 05:48:58;;;;;;;7.45;4.20;;;;;;;16.02;49.51;96001.03;4981297;28;20026;-64
2021/07/19 05:51:23;;;;;;;9.32;4.30;;;;;;;15.95;49.35;96004.53;4987009;28;20384;-64
2021/07/19 05:53:49;;;;;;;4.63;3.50;;;;;;;16.34;49.63;96006.66;4987211;28;20065;-64
2021/07/19 05:56:14;;;;;;;9.63;5.45;;;;;;;16.74;48.79;96008.56;4985774;28;20395;-64
2021/07/19 05:58:40;;;;;;;7.20;3.58;;;;;;;17.21;46.97;96021.13;4985842;28;20038;-65
2021/07/19 06:01:05;;;;;;;5.18;3.40;;;;;;;17.65;45.27;96019.53;4987000;28;20034;-64
2021/07/19 06:03:31;;;;;;;6.13;3.50;;;;;;;17.75;44.17;96026.34;4989171;28;20365;-64
2021/07/19 06:05:56;;;;;;;7.70;3.70;;;;;;;17.89;44.08;96027.13;4995394;28;20042;-64
2021/07/19 06:08:21;;;;;;;7.97;3.92;;;;;;;17.73;44.22;96028.41;4991126;28;20747;-65
2021/07/19 06:10:47;;;;;;;7.13;3.90;;;;;;;17.84;43.13;96029.63;4990258;28;20483;-65
2021/07/19 06:13:12;;;;;;;5.47;3.50;;;;;;;17.86;44.02;96030.25;4991120;28;20447;-65
2021/07/19 06:15:39;;;;;;;5.93;4.07;;;;;;;18.21;43.41;96027.13;4989994;28;20065;-65
2021/07/19 06:18:04;;;;;;;7.65;4.22;;;;;;;18.16;42.74;96038.56;4990216;28;20101;-65
2021/07/19 06:20:30;;;;;;;12.30;3.50;;;;;;;18.22;42.69;96031.47;4988910;28;20026;-65
2021/07/19 06:23:00;;;;;;;11.05;3.97;;;;;;;17.95;42.91;96046.97;4990193;28;20080;-65
2021/07/19 06:25:26;;;;;;;5.30;3.22;;;;;;;18.32;42.56;96036.38;4990084;28;20061;-65
2021/07/19 06:27:51;;;;;;;7.97;3.13;;;;;;;18.27;42.89;96034.38;4990550;28;20042;-65
2021/07/19 06:30:17;;;;;;;8.98;3.58;;;;;;;18.17;42.51;96032.16;4989942;28;20034;-65
2021/07/19 06:32:42;;;;;;;7.75;3.95;;;;;;;18.22;43.23;96033.38;4990694;28;20030;-65
2021/07/19 06:35:09;;;;;;;7.97;3.90;;;;;;;17.33;44.74;96037.47;4989827;28;20056;-65
2021/07/19 06:37:34;;;;;;;8.73;3.60;;;;;;;17.53;43.99;96035.53;4990386;28;20034;-65
2021/07/19 06:40:00;;;;;;;8.38;3.60;;;;;;;18.07;43.36;96031.78;4989511;28;20094;-65
2021/07/19 06:42:25;;;;;;;6.53;3.50;;;;;;;18.40;42.50;96035.31;4989416;28;20034;-65
2021/07/19 06:44:54;;;;;;;6.47;3.10;;;;;;;18.55;42.14;96019.66;4990055;28;20038;-65
2021/07/19 06:47:20;;;;;;;5.93;3.70;;;;;;;18.87;40.97;96029.56;4981989;28;20182;-65
2021/07/19 06:49:46;;;;;;;6.38;3.33;;;;;;;19.18;41.19;96035.91;4988590;28;20029;-65
2021/07/19 06:52:11;;;;;;;7.25;3.40;;;;;;;19.41;40.16;96030.94;4988615;28;20030;-65
2021/07/19 06:54:37;;;;;;;9.80;6.10;;;;;;;19.58;39.76;96037.38;4988324;28;20049;-65
2021/07/19 06:57:02;;;;;;;6.28;3.58;;;;;;;19.57;38.61;96040.31;4989627;28;20033;-65
2021/07/19 06:59:28;;;;;;;5.95;3.40;;;;;;;19.57;38.76;96043.84;4988148;28;20050;-65
2021/07/19 07:01:53;;;;;;;6.40;3.40;;;;;;;19.82;38.93;96037.50;4989137;28;20487;-65
2021/07/19 07:04:19;;;;;;;7.63;3.13;;;;;;;20.05;38.96;96041.41;4989733;28;20074;-65
2021/07/19 07:06:44;;;;;;;5.55;3.00;;;;;;;20.25;38.40;96039.50;4989091;28;20494;-65
2021/07/19 07:09:10;;;;;;;8.77;3.47;;;;;;;20.01;38.52;96040.22;4989541;28;20062;-65
2021/07/19 07:11:35;;;;;;;6.60;3.00;;;;;;;20.27;37.88;96037.38;4989029;28;20046;-65
2021/07/19 07:14:01;;;;;;;5.47;3.70;;;;;;;19.85;39.01;96033.53;4988743;28;20053;-65
2021/07/19 07:16:27;;;;;;;5.97;3.35;;;;;;;20.17;38.19;96032.50;4987584;28;20034;-65
2021/07/19 07:18:52;;;;;;;7.75;3.63;;;;;;;20.23;38.04;96035.13;4989424;28;20045;-65
2021/07/19 07:21:18;;;;;;;7.78;4.38;;;;;;;19.61;39.15;96033.41;4989843;28;20031;-65
2021/07/19 07:23:43;;;;;;;6.93;3.65;;;;;;;19.98;38.32;96029.84;4989295;28;20316;-65
2021/07/19 07:26:09;;;;;;;4.80;3.30;;;;;;;20.53;37.36;96027.22;4988410;28;20042;-65
2021/07/19 07:28:34;;;;;;;6.22;3.72;;;;;;;20.55;36.01;96030.50;4988335;28;20046;-65
2021/07/19 07:30:59;;;;;;;7.40;3.22;;;;;;;20.60;35.29;96031.44;4987254;28;20033;-65
2021/07/19 07:33:25;;;;;;;7.50;3.60;;;;;;;20.73;36.00;96033.16;5004808;28;20042;-65
2021/07/19 07:35:51;;;;;;;7.28;3.60;;;;;;;20.33;37.29;96041.88;5003806;28;20041;-65
2021/07/19 07:38:17;;;;;;;4.97;3.47;;;;;;;20.16;37.68;96039.78;5003491;28;20088;-65
2021/07/19 07:40:42;;;;;;;6.75;3.83;;;;;;;20.18;37.65;96039.56;5002239;28;20034;-65
2021/07/19 07:43:08;;;;;;;6.75;3.40;;;;;;;20.39;37.27;96040.13;5002526;28;20233;-65
2021/07/19 07:45:33;;;;;;;8.00;3.72;;;;;;;20.49;36.85;96040.34;5009299;28;20038;-65
2021/07/19 07:47:59;;;;;;;5.78;3.70;;;;;;;20.25;37.50;96037.59;5003876;28;20037;-65
2021/07/19 07:50:24;;;;;;;7.53;3.92;;;;;;;20.33;37.09;96031.03;5005364;28;20428;-65
2021/07/19 07:52:50;;;;;;;6.47;3.70;;;;;;;20.72;36.89;96036.06;5002678;28;20030;-65
2021/07/19 07:55:15;;;;;;;6.93;4.10;;;;;;;21.00;35.62;96031.84;5000700;28;20088;-65
2021/07/19 07:57:41;;;;;;;6.55;4.10;;;;;;;21.15;34.93;96031.41;5001615;28;20094;-65
2021/07/19 08:00:13;;;;;;;5.03;3.70;;;;;;;21.32;35.52;96028.00;5000642;28;20057;-65
2021/07/19 08:02:39;;;;;;;7.47;3.97;;;;;;;21.60;33.83;96024.53;4999935;28;20426;-65
2021/07/19 08:05:05;;;;;;;6.68;4.55;;;;;;;21.92;33.60;96039.53;5001748;28;20029;-65
2021/07/19 08:07:31;;;;;;;8.45;4.32;;;;;;;22.04;33.17;96039.50;5001777;28;20247;-65
2021/07/19 08:09:56;;;;;;;8.02;4.68;;;;;;;22.24;33.42;96033.66;5001030;28;20156;-65
2021/07/19 08:12:22;;;;;;;8.23;5.65;;;;;;;22.53;31.52;96030.06;5001707;28;20026;-65
2021/07/19 08:14:47;;;;;;;12.85;5.43;;;;;;;22.03;33.89;96043.28;5002098;28;20042;-65
2021/07/19 08:17:13;;;;;;;10.77;5.43;;;;;;;22.11;33.45;96029.34;5001541;28;20433;-65
2021/07/19 08:19:38;;;;;;;7.55;5.47;;;;;;;22.02;32.79;96045.16;5001520;28;20109;-65
2021/07/19 08:22:03;;;;;;;8.95;5.25;;;;;;;22.39;33.15;96035.78;4999765;28;20037;-65
2021/07/19 08:24:31;;;;;;;7.50;5.07;;;;;;;21.54;33.18;96038.19;5005659;28;20034;-65
2021/07/19 08:26:56;;;;;;;8.05;5.53;;;;;;;21.05;34.72;96039.28;4999085;28;20087;-65
2021/07/19 08:29:22;;;;;;;11.00;6.65;;;;;;;21.67;33.79;96029.81;4998967;28;20465;-65
2021/07/19 08:31:47;;;;;;;8.02;5.88;;;;;;;22.34;32.22;96027.56;5000706;28;20637;-65
2021/07/19 08:34:13;;;;;;;10.25;6.63;;;;;;;22.57;32.81;96031.22;5002181;28;20037;-66
2021/07/19 08:36:38;;;;;;;11.00;6.55;;;;;;;22.94;31.95;96035.34;5000852;28;20034;-65
2021/07/19 08:39:04;;;;;;;9.98;6.15;;;;;;;23.18;30.53;96029.72;4999384;28;20305;-65
2021/07/19 08:41:30;;;;;;;8.55;6.15;;;;;;;22.81;30.92;96033.81;5001085;28;20041;-65
2021/07/19 08:43:57;;;;;;;10.32;6.85;;;;;;;23.01;31.40;96029.75;4999868;28;20030;-65
2021/07/19 08:46:22;;;;;;;12.40;6.97;;;;;;;22.44;32.52;96034.22;5010538;28;20065;-65
2021/07/19 08:48:52;;;;;;;9.50;6.37;;;;;;;22.79;32.05;96030.50;4990229;28;20037;-65
2021/07/19 08:51:17;;;;;;;9.85;6.15;;;;;;;22.62;30.68;96028.63;5002798;28;20523;-65
2021/07/19 08:53:42;;;;;;;13.87;8.43;;;;;;;22.70;32.48;96032.00;4998429;28;20041;-66
2021/07/19 08:56:08;;;;;;;9.45;6.55;;;;;;;22.89;30.60;96027.97;5030763;28;20474;-65
2021/07/19 08:58:34;;;;;;;8.45;5.70;;;;;;;23.02;30.58;96021.34;4997380;28;20797;-65
2021/07/19 09:01:01;;;;;;;9.00;5.80;;;;;;;23.36;30.73;96022.38;4979020;28;20065;-65
2021/07/19 09:03:26;;;;;;;11.00;8.25;;;;;;;23.36;30.97;96027.81;5002230;28;20030;-65
2021/07/19 09:05:52;;;;;;;11.60;6.93;;;;;;;23.62;29.28;96026.25;4994897;28;20022;-65
2021/07/19 09:08:17;;;;;;;10.23;7.23;;;;;;;24.01;29.58;96030.81;4993101;28;20525;-65
2021/07/19 09:10:43;;;;;;;9.93;6.20;;;;;;;24.03;28.68;96036.00;4999237;28;20041;-65
2021/07/19 09:13:17;;;;;;;9.60;6.53;;;;;;;23.99;29.64;96034.88;5004879;28;20036;-65
2021/07/19 09:15:43;;;;;;;9.32;6.93;;;;;;;23.88;30.33;96034.75;5012707;28;20503;-67
2021/07/19 09:18:09;;;;;;;14.17;7.33;;;;;;;24.14;29.66;96029.59;5000482;28;20116;-65
2021/07/19 09:20:39;;;;;;;8.82;5.95;;;;;;;23.71;28.43;96025.81;4999440;28;20033;-65
2021/07/19 09:23:09;;;;;;;17.73;7.78;;;;;;;21.62;32.58;96032.44;4997685;28;20107;-66
2021/07/19 09:25:34;;;;;;;10.48;6.22;;;;;;;23.20;29.60;96015.91;5009088;28;20096;-65
2021/07/19 09:28:09;;;;;;;13.83;7.00;;;;;;;23.21;29.54;96020.28;5006069;28;20054;-65
2021/07/19 09:30:45;;;;;;;8.20;5.95;;;;;;;23.48;29.22;96016.84;4994866;28;20044;-66
2021/07/19 09:33:11;;;;;;;9.00;6.60;;;;;;;22.86;30.08;96023.03;4987591;28;20030;-65
2021/07/19 09:35:41;;;;;;;9.60;7.20;;;;;;;22.38;30.39;96020.59;4999470;28;20444;-65
2021/07/19 09:38:12;;;;;;;9.80;6.28;;;;;;;21.81;32.74;96022.22;4999740;28;20196;-65
2021/07/19 09:40:38;;;;;;;9.60;6.65;;;;;;;21.21;32.68;96021.50;5003156;28;20037;-65
2021/07/19 09:43:22;;;;;;;10.52;7.28;;;;;;;20.92;33.42;96018.69;5003441;28;20113;-65
2021/07/19 09:46:00;;;;;;;11.43;7.43;;;;;;;21.15;32.62;96017.88;5003955;28;20037;-65
2021/07/19 09:48:26;;;;;;;12.80;8.00;;;;;;;20.35;33.54;96013.53;4999459;28;20032;-65
2021/07/19 09:50:52;;;;;;;25.08;8.20;;;;;;;19.65;35.46;96021.09;5003203;28;20068;-65
2021/07/19 09:53:38;;;;;;;22.13;8.97;;;;;;;19.90;34.93;96013.94;5011001;28;20035;-65
2021/07/19 09:56:22;;;;;;;17.40;8.30;;;;;;;20.98;33.81;96002.31;5003381;28;20133;-65
2021/07/19 09:59:04;;;;;;;15.52;8.57;;;;;;;20.67;34.43;96009.72;5001987;28;20530;-65
2021/07/19 10:01:31;;;;;;;19.10;8.73;;;;;;;21.76;32.45;96009.38;5003789;28;20492;-65
2021/07/19 10:04:06;;;;;;;18.58;8.35;;;;;;;21.58;32.18;96015.81;5001957;28;20552;-65
2021/07/19 10:06:31;;;;;;;14.15;7.88;;;;;;;21.59;33.35;96003.91;5000320;28;20042;-65
2021/07/19 10:08:57;;;;;;;9.30;7.13;;;;;;;21.73;32.63;96003.66;5006354;28;20482;-65
2021/07/19 10:11:23;;;;;;;10.40;7.88;;;;;;;22.06;31.19;95993.19;5002824;28;20486;-65
2021/07/19 10:13:49;;;;;;;15.93;8.27;;;;;;;22.30;31.48;95993.88;5006735;28;20034;-66
2021/07/19 10:16:15;;;;;;;11.95;8.40;;;;;;;22.79;30.32;95985.19;5002737;28;20045;-65
2021/07/19 10:18:40;;;;;;;11.73;8.10;;;;;;;22.73;31.11;95998.91;4999566;28;20458;-65
2021/07/19 10:21:06;;;;;;;14.07;7.70;;;;;;;23.19;29.51;95987.97;5011361;28;20092;-65
2021/07/19 10:23:32;;;;;;;10.90;8.07;;;;;;;22.50;29.97;95992.59;5006829;28;20563;-65
2021/07/19 10:25:57;;;;;;;12.68;8.35;;;;;;;22.60;30.76;95987.34;5000316;28;20095;-65
2021/07/19 10:28:23;;;;;;;12.02;8.63;;;;;;;22.41;30.54;95984.81;5003290;28;20045;-65
2021/07/19 10:30:48;;;;;;;10.88;8.32;;;;;;;22.60;30.81;95976.47;5000944;28;20166;-65
2021/07/19 10:33:14;;;;;;;11.73;8.20;;;;;;;22.75;30.70;95977.78;4983283;28;20235;-65
2021/07/19 10:35:39;;;;;;;11.07;8.90;;;;;;;22.96;30.56;95983.50;5013459;28;20102;-65
2021/07/19 10:38:14;;;;;;;14.43;11.52;;;;;;;21.26;32.18;95989.13;5003995;28;20593;-66
2021/07/19 10:40:40;;;;;;;10.85;8.77;;;;;;;21.73;31.88;95976.56;4985141;28;20399;-68
2021/07/19 10:43:24;;;;;;;10.00;8.25;;;;;;;22.92;29.91;95977.78;5006296;28;20049;-65
2021/07/19 10:45:53;;;;;;;11.25;8.52;;;;;;;23.30;30.05;95981.59;5000431;28;20044;-65
2021/07/19 10:48:26;;;;;;;11.23;8.55;;;;;;;23.87;27.87;95983.34;5003035;28;20100;-65
2021/07/19 10:50:51;;;;;;;11.63;8.80;;;;;;;23.96;29.18;95987.25;4998437;28;20156;-65
2021/07/19 10:53:19;;;;;;;15.27;9.20;;;;;;;24.11;28.34;95986.59;5005938;28;20381;-65
2021/07/19 10:55:45;;;;;;;11.63;7.97;;;;;;;25.13;26.47;95978.72;5012510;28;20548;-65
2021/07/19 10:58:17;;;;;;;15.37;8.47;;;;;;;24.60;27.85;95987.59;5001038;28;20033;-65
2021/07/19 11:00:45;;;;;;;13.07;8.65;;;;;;;24.57;27.57;95977.22;5002069;28;20078;-65
2021/07/19 11:03:12;;;;;;;11.82;9.10;;;;;;;24.43;28.31;95985.81;5001932;28;20041;-66
2021/07/19 11:05:38;;;;;;;;;;;;;;;24.73;27.78;95985.50;5001108;28;20034;-65
2021/07/19 11:08:04;;;;;;;13.32;8.50;;;;;;;24.90;27.53;95979.94;5002259;28;19921;-65
2021/07/19 11:10:30;;;;;;;11.57;7.90;;;;;;;23.80;28.55;95970.78;4999992;28;20037;-65
2021/07/19 11:12:57;;;;;;;13.05;8.48;;;;;;;23.71;28.35;95971.44;5001956;28;20033;-65
2021/07/19 11:15:46;;;;;;;10.48;8.73;;;;;;;22.97;29.74;95977.03;5010405;28;20033;-65
2021/07/19 11:18:32;;;;;;;14.30;9.05;;;;;;;22.75;30.88;95969.66;4995887;28;20235;-65
2021/07/19 11:20:59;;;;;;;12.40;8.77;;;;;;;23.67;29.95;95971.16;5004737;28;20049;-65
2021/07/19 11:23:35;;;;;;;12.55;10.35;;;;;;;24.12;29.15;95968.38;5004660;28;20157;-65
2021/07/19 11:26:05;;;;;;;11.35;9.00;;;;;;;23.94;28.55;95973.91;4999538;28;20068;-65
2021/07/19 11:28:39;;;;;;;13.77;8.75;;;;;;;23.94;27.87;95968.47;5002235;28;20510;-65
2021/07/19 11:31:10;;;;;;;11.13;9.20;;;;;;;23.86;28.83;95970.84;5002205;28;20106;-65